createdAt,value
2023-01-30T00:01:17.840Z,-1.00
2023-01-30T00:03:49.266Z,-1.00
2023-01-30T00:06:17.968Z,-1.00
2023-01-30T00:08:46.628Z,-1.00
2023-01-30T00:11:16.768Z,-1.00
2023-01-30T00:13:45.130Z,-1.00
2023-01-30T00:16:14.145Z,-1.00
2023-01-30T00:18:43.876Z,-1.00
2023-01-30T00:21:14.771Z,-1.00
2023-01-30T00:23:43.113Z,-0.80
2023-01-30T00:26:11.951Z,-0.90
2023-01-30T00:28:40.747Z,-0.80
2023-01-30T00:31:09.491Z,-1.00
2023-01-30T00:33:38.994Z,-1.00
2023-01-30T00:36:07.981Z,-1.00
2023-01-30T00:38:37.915Z,-1.00
2023-01-30T00:41:06.492Z,-1.00
2023-01-30T00:43:52.011Z,-0.70
2023-01-30T00:46:45.150Z,-0.90
2023-01-30T00:49:13.635Z,-0.90
2023-01-30T00:51:41.824Z,-0.90
2023-01-30T00:54:11.395Z,-0.80
2023-01-30T00:56:39.567Z,-0.80
2023-01-30T00:59:07.710Z,-0.90
2023-01-30T01:01:35.905Z,-0.90
2023-01-30T01:04:04.123Z,-0.90
2023-01-30T01:06:32.345Z,-0.90
2023-01-30T01:09:00.477Z,-0.90
2023-01-30T01:11:30.369Z,-0.80
2023-01-30T01:14:00.863Z,-0.90
2023-01-30T01:16:30.764Z,-0.90
2023-01-30T01:18:59.307Z,-0.90
2023-01-30T01:21:27.621Z,-0.90
2023-01-30T01:23:58.702Z,-0.90
2023-01-30T01:26:27.530Z,-0.90
2023-01-30T01:28:58.249Z,-0.90
2023-01-30T01:31:26.916Z,-0.90
2023-01-30T01:33:55.143Z,-0.90
2023-01-30T01:36:51.625Z,-0.80
2023-01-30T01:39:12.004Z,-0.80
2023-01-30T01:41:39.146Z,-0.80
2023-01-30T01:44:10.081Z,-0.80
2023-01-30T01:46:41.567Z,-0.80
2023-01-30T01:49:16.618Z,-0.70
2023-01-30T01:51:51.882Z,-0.80
2023-01-30T01:54:26.800Z,-0.80
2023-01-30T01:56:55.239Z,-0.70
2023-01-30T01:59:29.550Z,-0.70
2023-01-30T02:02:02.151Z,-0.60
2023-01-30T02:04:50.579Z,-0.70
2023-01-30T02:07:22.132Z,-0.70
2023-01-30T02:09:51.703Z,-0.70
2023-01-30T02:12:20.041Z,-0.70
2023-01-30T02:14:50.877Z,-0.70
2023-01-30T02:17:19.108Z,-0.60
2023-01-30T02:19:53.317Z,-0.60
2023-01-30T02:22:38.118Z,-0.60
2023-01-30T02:25:48.894Z,-0.60
2023-01-30T02:28:38.133Z,-0.60
2023-01-30T02:31:28.848Z,-0.60
2023-01-30T02:34:12.259Z,-0.50
2023-01-30T02:36:50.369Z,-0.50
2023-01-30T02:39:30.246Z,-0.50
2023-01-30T02:42:06.655Z,-0.40
2023-01-30T02:44:43.762Z,-0.50
2023-01-30T02:47:17.175Z,-0.50
2023-01-30T02:49:50.676Z,-0.50
2023-01-30T02:52:18.789Z,-0.50
2023-01-30T02:54:46.979Z,-0.50
2023-01-30T02:57:21.307Z,-0.40
2023-01-30T02:59:53.476Z,-0.40
2023-01-30T03:02:50.719Z,-0.40
2023-01-30T03:05:32.087Z,-0.40
2023-01-30T03:08:10.317Z,-0.40
2023-01-30T03:10:43.882Z,-0.40
2023-01-30T03:13:20.512Z,-0.40
2023-01-30T03:15:53.246Z,-0.40
2023-01-30T03:18:23.355Z,-0.40
2023-01-30T03:20:52.475Z,-0.30
2023-01-30T03:23:20.636Z,-0.30
2023-01-30T03:25:49.924Z,-0.30
2023-01-30T03:28:22.032Z,-0.30
2023-01-30T03:30:50.387Z,-0.20
2023-01-30T03:33:18.608Z,-0.30
2023-01-30T03:35:48.302Z,-0.30
2023-01-30T03:38:16.485Z,-0.20
2023-01-30T03:40:44.911Z,-0.30
2023-01-30T03:43:13.048Z,-0.30
2023-01-30T03:45:41.143Z,-0.30
2023-01-30T03:48:09.334Z,-0.30
2023-01-30T03:50:37.465Z,-0.20
2023-01-30T03:53:06.947Z,-0.30
2023-01-30T03:55:35.245Z,-0.30
2023-01-30T03:58:03.524Z,-0.20
2023-01-30T04:00:31.696Z,-0.10
2023-01-30T04:03:00.013Z,0.10
2023-01-30T04:05:28.282Z,0.00
2023-01-30T04:07:58.112Z,0.00
2023-01-30T04:10:27.907Z,0.00
2023-01-30T04:12:56.112Z,0.00
2023-01-30T04:15:24.454Z,0.10
2023-01-30T04:17:52.617Z,0.20
2023-01-30T04:20:21.181Z,0.10
2023-01-30T04:22:49.301Z,0.30
2023-01-30T04:25:18.042Z,0.20
2023-01-30T04:27:47.729Z,0.30
2023-01-30T04:30:15.934Z,0.30
2023-01-30T04:32:44.162Z,0.30
2023-01-30T04:35:12.774Z,0.20
2023-01-30T04:37:40.996Z,0.30
2023-01-30T04:40:10.217Z,0.50
2023-01-30T04:42:38.446Z,0.30
2023-01-30T04:45:09.413Z,0.30
2023-01-30T04:47:37.689Z,0.20
2023-01-30T04:50:06.486Z,0.20
2023-01-30T04:52:34.643Z,0.20
2023-01-30T04:55:02.815Z,0.20
2023-01-30T04:57:31.000Z,0.20
2023-01-30T04:59:59.089Z,0.20
2023-01-30T05:02:28.730Z,0.30
2023-01-30T05:04:56.909Z,0.30
2023-01-30T05:07:25.065Z,0.30
2023-01-30T05:09:53.106Z,0.40
2023-01-30T05:12:21.379Z,0.40
2023-01-30T05:14:49.537Z,0.40
2023-01-30T05:17:17.964Z,0.50
2023-01-30T05:19:47.470Z,0.50
2023-01-30T05:22:15.682Z,0.50
2023-01-30T05:24:43.798Z,0.60
2023-01-30T05:27:11.970Z,0.60
2023-01-30T05:29:40.153Z,0.60
2023-01-30T05:32:08.517Z,0.50
2023-01-30T05:34:36.681Z,0.50
2023-01-30T05:37:06.305Z,0.50
2023-01-30T05:39:34.531Z,0.50
2023-01-30T05:42:02.687Z,0.60
2023-01-30T05:44:34.882Z,0.40
2023-01-30T05:47:03.135Z,0.50
2023-01-30T05:49:31.279Z,0.50
2023-01-30T05:51:59.412Z,0.40
2023-01-30T05:54:29.956Z,0.40
2023-01-30T05:56:58.105Z,0.30
2023-01-30T05:59:26.709Z,0.40
2023-01-30T06:01:54.835Z,0.40
2023-01-30T06:04:23.112Z,0.40
2023-01-30T06:06:51.824Z,0.40
2023-01-30T06:09:19.966Z,0.50
2023-01-30T06:11:52.438Z,0.40
2023-01-30T06:14:21.304Z,0.50
2023-01-30T06:16:49.771Z,0.40
2023-01-30T06:19:17.965Z,0.50
2023-01-30T06:21:46.234Z,0.40
2023-01-30T06:24:14.582Z,0.50
2023-01-30T06:26:42.796Z,0.40
2023-01-30T06:29:12.581Z,0.40
2023-01-30T06:31:40.797Z,0.40
2023-01-30T06:34:09.019Z,0.40
2023-01-30T06:36:37.288Z,0.40
2023-01-30T06:39:05.597Z,0.40
2023-01-30T06:41:33.808Z,0.40
2023-01-30T06:44:02.095Z,0.40
2023-01-30T06:46:31.616Z,0.40
2023-01-30T06:48:59.799Z,0.30
2023-01-30T06:51:27.874Z,0.50
2023-01-30T06:53:56.012Z,0.30
2023-01-30T06:56:24.189Z,0.40
2023-01-30T06:58:52.261Z,0.30
2023-01-30T07:01:21.332Z,0.30
2023-01-30T07:03:50.980Z,0.30
2023-01-30T07:06:19.217Z,0.40
2023-01-30T07:08:47.473Z,0.30
2023-01-30T07:11:15.658Z,0.40
2023-01-30T07:13:43.809Z,0.40
2023-01-30T07:16:13.278Z,0.40
2023-01-30T07:18:41.467Z,0.40
2023-01-30T07:21:11.118Z,0.40
2023-01-30T07:23:39.331Z,0.40
2023-01-30T07:26:07.936Z,0.40
2023-01-30T07:28:36.199Z,0.40
2023-01-30T07:31:04.415Z,0.40
2023-01-30T07:33:32.601Z,0.40
2023-01-30T07:36:00.844Z,0.40
2023-01-30T07:38:30.433Z,0.40
2023-01-30T07:40:59.394Z,0.40
2023-01-30T07:43:27.654Z,0.40
2023-01-30T07:45:55.748Z,0.40
2023-01-30T07:48:23.995Z,0.40
2023-01-30T07:50:52.669Z,0.40
2023-01-30T07:53:20.963Z,0.40
2023-01-30T07:55:50.585Z,0.40
2023-01-30T07:58:18.786Z,0.40
2023-01-30T08:00:46.936Z,0.50
2023-01-30T08:03:18.329Z,0.40
2023-01-30T08:05:47.912Z,0.40
2023-01-30T08:08:16.391Z,0.50
2023-01-30T08:10:45.668Z,0.50
2023-01-30T08:13:15.555Z,0.50
2023-01-30T08:15:43.710Z,0.50
2023-01-30T08:18:11.886Z,0.50
2023-01-30T08:20:40.077Z,0.50
2023-01-30T08:23:08.267Z,0.50
2023-01-30T08:25:37.139Z,0.50
2023-01-30T08:28:06.102Z,0.60
2023-01-30T08:30:35.820Z,0.60
2023-01-30T08:33:04.149Z,0.60
2023-01-30T08:35:32.273Z,0.60
2023-01-30T08:38:00.564Z,0.60
2023-01-30T08:40:28.635Z,0.60
2023-01-30T08:42:56.738Z,0.70
2023-01-30T08:45:24.915Z,0.70
2023-01-30T08:47:54.395Z,0.70
2023-01-30T08:50:22.530Z,0.60
2023-01-30T08:52:50.620Z,0.80
2023-01-30T08:55:19.163Z,0.80
2023-01-30T08:57:47.412Z,0.80
2023-01-30T09:00:17.231Z,0.90
2023-01-30T09:02:48.507Z,0.90
2023-01-30T09:05:18.510Z,1.00
2023-01-30T09:07:46.672Z,1.20
2023-01-30T09:10:14.996Z,1.20
2023-01-30T09:12:43.374Z,1.20
2023-01-30T09:15:12.451Z,1.20
2023-01-30T09:17:41.069Z,1.30
2023-01-30T09:20:11.070Z,1.30
2023-01-30T09:22:41.055Z,1.30
2023-01-30T09:25:10.157Z,1.30
2023-01-30T09:27:38.664Z,1.40
2023-01-30T09:30:08.548Z,1.40
2023-01-30T09:32:37.565Z,1.40
2023-01-30T09:35:06.452Z,1.50
2023-01-30T09:37:34.823Z,1.50
2023-01-30T09:40:05.501Z,1.60
2023-01-30T09:42:46.517Z,1.70
2023-01-30T09:45:27.972Z,1.80
2023-01-30T09:48:02.783Z,2.00
2023-01-30T09:50:53.474Z,2.00
2023-01-30T09:53:28.653Z,2.20
2023-01-30T09:55:59.855Z,2.30
2023-01-30T09:58:39.165Z,2.40
2023-01-30T10:01:14.179Z,2.50
2023-01-30T10:03:51.617Z,2.60
2023-01-30T10:06:20.512Z,2.70
2023-01-30T10:08:54.261Z,2.70
2023-01-30T10:11:44.180Z,2.90
2023-01-30T10:14:37.039Z,2.90
2023-01-30T10:17:25.827Z,3.00
2023-01-30T10:20:08.281Z,3.10
2023-01-30T10:22:46.371Z,3.10
2023-01-30T10:25:29.266Z,3.30
2023-01-30T10:28:05.237Z,3.30
2023-01-30T10:30:35.506Z,3.30
2023-01-30T10:33:08.531Z,3.40
2023-01-30T10:35:41.181Z,3.50
2023-01-30T10:38:17.682Z,3.40
2023-01-30T10:40:53.862Z,3.50
2023-01-30T10:43:31.038Z,3.40
2023-01-30T10:46:06.429Z,3.40
2023-01-30T10:48:54.313Z,3.40
2023-01-30T10:51:44.270Z,3.40
2023-01-30T10:54:19.973Z,3.40
2023-01-30T10:57:09.506Z,3.40
2023-01-30T10:59:51.516Z,3.40
2023-01-30T11:02:28.487Z,3.40
2023-01-30T11:05:01.620Z,3.40
2023-01-30T11:07:32.926Z,3.40
2023-01-30T11:10:02.395Z,3.40
2023-01-30T11:12:31.207Z,3.40
2023-01-30T11:15:04.496Z,3.40
2023-01-30T11:17:36.911Z,3.50
2023-01-30T11:20:13.681Z,3.40
2023-01-30T11:22:48.817Z,3.40
2023-01-30T11:25:19.761Z,3.50
2023-01-30T11:27:55.986Z,3.60
2023-01-30T11:30:30.818Z,3.80
2023-01-30T11:33:12.578Z,4.20
2023-01-30T11:35:46.615Z,4.30
2023-01-30T11:38:23.696Z,4.20
2023-01-30T11:41:02.570Z,4.20
2023-01-30T11:43:32.240Z,4.40
2023-01-30T11:46:02.911Z,4.40
2023-01-30T11:49:02.996Z,4.40
2023-01-30T11:51:26.647Z,4.50
2023-01-30T11:53:59.033Z,4.50
2023-01-30T11:56:34.871Z,4.40
2023-01-30T11:59:07.499Z,4.50
2023-01-30T12:01:50.324Z,4.40
2023-01-30T12:04:21.179Z,4.30
2023-01-30T12:07:22.119Z,4.40
2023-01-30T12:13:15.017Z,4.80
2023-01-30T12:15:52.043Z,5.00
2023-01-30T12:18:40.395Z,4.90
2023-01-30T12:21:53.679Z,4.80
2023-01-30T12:24:27.258Z,4.60
2023-01-30T12:27:19.144Z,4.60
2023-01-30T12:30:00.569Z,4.60
2023-01-30T12:35:46.072Z,4.40
2023-01-30T12:38:55.092Z,4.50
2023-01-30T12:45:17.492Z,4.40
2023-01-30T12:48:30.352Z,4.40
2023-01-30T12:51:18.882Z,4.50
2023-01-30T13:00:17.205Z,4.60
2023-01-30T13:03:13.353Z,4.70
2023-01-30T13:06:06.002Z,4.70
2023-01-30T13:09:22.429Z,4.70
2023-01-30T13:12:09.765Z,4.70
2023-01-30T14:10:15.010Z,4.50
2023-01-30T14:12:45.881Z,4.50
2023-01-30T14:15:28.878Z,4.40
2023-01-30T14:18:07.342Z,4.30
2023-01-30T14:20:37.066Z,3.90
2023-01-30T14:23:15.597Z,3.80
2023-01-30T14:25:50.507Z,3.70
2023-01-30T14:28:51.948Z,3.60
2023-01-30T14:31:53.884Z,3.60
2023-01-30T14:35:06.794Z,3.70
2023-01-30T14:38:06.074Z,3.70
2023-01-30T14:40:44.762Z,3.60
2023-01-30T14:43:54.281Z,3.70
2023-01-30T14:46:56.931Z,3.60
2023-01-30T14:49:31.953Z,3.70
2023-01-30T14:52:00.345Z,3.80
2023-01-30T14:54:41.912Z,3.90
2023-01-30T14:57:20.797Z,4.10
2023-01-30T15:00:13.022Z,4.10
2023-01-30T15:02:44.715Z,4.10
2023-01-30T15:05:16.397Z,4.10
2023-01-30T15:07:48.257Z,4.10
2023-01-30T15:10:33.852Z,4.10
2023-01-30T15:13:19.933Z,4.00
2023-01-30T15:15:59.239Z,4.00
2023-01-30T15:19:02.525Z,4.00
2023-01-30T15:21:56.059Z,4.00
2023-01-30T15:24:48.999Z,4.00
2023-01-30T15:27:27.280Z,4.10
2023-01-30T15:30:12.604Z,4.10
2023-01-30T15:32:43.186Z,4.00
2023-01-30T15:35:25.605Z,4.10
2023-01-30T15:37:56.247Z,4.00
2023-01-30T15:40:27.111Z,4.10
2023-01-30T15:43:08.945Z,4.10
2023-01-30T15:45:45.897Z,4.10
2023-01-30T15:48:48.348Z,4.10
2023-01-30T15:51:20.551Z,4.00
2023-01-30T15:53:49.212Z,4.00
2023-01-30T15:56:21.499Z,4.00
2023-01-30T15:58:50.235Z,4.00
2023-01-30T16:01:21.158Z,4.00
2023-01-30T16:03:51.205Z,4.00
2023-01-30T16:06:30.397Z,3.90
2023-01-30T16:09:01.680Z,3.90
2023-01-30T16:11:40.873Z,3.80
2023-01-30T16:14:14.042Z,3.90
2023-01-30T16:16:45.481Z,3.80
2023-01-30T16:19:26.443Z,3.90
2023-01-30T16:21:57.006Z,3.90
2023-01-30T16:24:29.245Z,3.90
2023-01-30T16:27:01.412Z,3.80
2023-01-30T16:29:31.858Z,3.80
2023-01-30T16:32:00.322Z,3.80
2023-01-30T16:34:34.930Z,3.90
2023-01-30T16:37:07.588Z,3.90
2023-01-30T16:39:37.038Z,3.80
2023-01-30T16:42:19.856Z,3.80
2023-01-30T16:44:47.953Z,3.90
2023-01-30T16:47:25.011Z,3.80
2023-01-30T16:49:55.677Z,3.90
2023-01-30T16:52:26.705Z,3.90
2023-01-30T16:54:57.429Z,4.00
2023-01-30T16:57:42.556Z,3.90
2023-01-30T17:00:22.821Z,3.90
2023-01-30T17:02:54.395Z,3.90
2023-01-30T17:05:26.457Z,3.80
2023-01-30T17:07:56.333Z,3.90
2023-01-30T17:10:48.605Z,4.00
2023-01-30T17:13:34.031Z,3.90
2023-01-30T17:16:28.629Z,3.80
2023-01-30T17:18:59.708Z,3.80
2023-01-30T17:21:32.139Z,3.80
2023-01-30T17:24:02.730Z,3.80
2023-01-30T17:26:31.730Z,3.90
2023-01-30T17:29:00.163Z,3.90
2023-01-30T17:31:28.366Z,3.80
2023-01-30T17:33:56.431Z,3.80
2023-01-30T17:36:27.447Z,3.80
2023-01-30T17:38:58.739Z,3.80
2023-01-30T17:41:30.284Z,3.80
2023-01-30T17:43:58.700Z,3.80
2023-01-30T17:46:34.720Z,3.90
2023-01-30T17:49:03.051Z,3.90
2023-01-30T17:51:31.127Z,3.90
2023-01-30T17:54:00.561Z,3.80
2023-01-30T17:56:35.743Z,3.90
2023-01-30T17:59:05.613Z,3.80
2023-01-30T18:01:33.885Z,3.90
2023-01-30T18:04:02.022Z,3.90
2023-01-30T18:06:32.126Z,4.00
2023-01-30T18:09:01.723Z,3.90
2023-01-30T18:11:29.829Z,4.00
2023-01-30T18:13:58.102Z,4.00
2023-01-30T18:16:30.864Z,4.00
2023-01-30T18:18:59.666Z,3.90
2023-01-30T18:21:28.071Z,3.90
2023-01-30T18:23:56.124Z,3.90
2023-01-30T18:26:25.873Z,4.00
2023-01-30T18:28:54.273Z,4.00
2023-01-30T18:31:23.828Z,4.00
2023-01-30T18:33:52.628Z,4.00
2023-01-30T18:36:22.450Z,4.00
2023-01-30T18:38:51.764Z,4.10
2023-01-30T18:41:21.779Z,4.10
2023-01-30T18:43:55.599Z,4.10
2023-01-30T18:46:24.210Z,4.00
2023-01-30T18:48:52.330Z,4.00
2023-01-30T18:51:22.778Z,4.00
2023-01-30T18:53:52.858Z,4.00
2023-01-30T18:56:22.979Z,4.00
2023-01-30T18:58:53.313Z,4.00
2023-01-30T19:01:23.505Z,4.10
2023-01-30T19:03:54.744Z,3.90
2023-01-30T19:06:23.112Z,4.00
2023-01-30T19:08:51.270Z,4.00
2023-01-30T19:11:38.962Z,4.00
2023-01-30T19:14:09.285Z,3.90
2023-01-30T19:16:39.077Z,4.00
2023-01-30T19:19:08.345Z,4.00
2023-01-30T19:21:37.100Z,4.00
2023-01-30T19:24:06.611Z,4.00
2023-01-30T19:26:34.993Z,4.10
2023-01-30T19:29:03.251Z,4.10
2023-01-30T19:31:32.894Z,4.10
2023-01-30T19:34:03.035Z,4.10
2023-01-30T19:36:32.799Z,4.10
2023-01-30T19:39:03.625Z,4.10
2023-01-30T19:41:33.638Z,4.10
2023-01-30T19:44:03.639Z,4.10
2023-01-30T19:46:33.223Z,4.00
2023-01-30T19:49:03.354Z,4.00
2023-01-30T19:51:33.937Z,3.90
2023-01-30T19:54:04.513Z,3.90
2023-01-30T19:56:33.143Z,4.00
2023-01-30T19:59:02.565Z,3.90
2023-01-30T20:01:35.686Z,3.80
2023-01-30T20:04:05.378Z,3.80
2023-01-30T20:06:35.626Z,3.80
2023-01-30T20:09:05.575Z,3.80
2023-01-30T20:11:35.482Z,3.80
2023-01-30T20:14:05.356Z,3.70
2023-01-30T20:16:35.984Z,3.80
2023-01-30T20:19:06.262Z,3.80
2023-01-30T20:21:34.975Z,3.80
2023-01-30T20:24:03.361Z,3.80
2023-01-30T20:26:34.848Z,3.80
2023-01-30T20:29:03.822Z,3.80
2023-01-30T20:31:32.220Z,3.80
2023-01-30T20:34:02.707Z,3.80
2023-01-30T20:36:31.009Z,3.80
2023-01-30T20:39:04.068Z,3.90
2023-01-30T20:41:35.102Z,3.90
2023-01-30T20:44:03.922Z,3.90
2023-01-30T20:46:35.676Z,3.80
2023-01-30T20:49:05.637Z,3.80
2023-01-30T20:51:34.892Z,3.80
2023-01-30T20:54:05.542Z,3.80
2023-01-30T20:56:35.359Z,3.70
2023-01-30T20:59:04.819Z,3.70
2023-01-30T21:01:33.511Z,3.70
2023-01-30T21:04:07.606Z,3.70
2023-01-30T21:06:44.776Z,3.70
2023-01-30T21:09:15.280Z,3.70
2023-01-30T21:11:43.398Z,3.70
2023-01-30T21:14:11.544Z,3.70
2023-01-30T21:16:39.805Z,3.60
2023-01-30T21:19:14.178Z,3.50
2023-01-30T21:21:43.901Z,3.50
2023-01-30T21:24:14.725Z,3.50
2023-01-30T21:26:46.337Z,3.50
2023-01-30T21:29:15.555Z,3.40
2023-01-30T21:31:44.864Z,3.30
2023-01-30T21:34:14.911Z,3.30
2023-01-30T21:36:43.189Z,3.30
2023-01-30T21:39:32.121Z,3.10
2023-01-30T21:42:17.740Z,3.00
2023-01-30T21:44:45.985Z,2.90
2023-01-30T21:47:14.302Z,2.80
2023-01-30T21:49:45.617Z,2.80
2023-01-30T21:52:13.736Z,2.80
2023-01-30T21:54:41.844Z,2.80
2023-01-30T21:57:09.978Z,2.70
2023-01-30T21:59:38.037Z,2.70
2023-01-30T22:02:06.282Z,2.70
2023-01-30T22:04:36.614Z,2.70
2023-01-30T22:07:07.011Z,2.70
2023-01-30T22:09:35.256Z,2.70
2023-01-30T22:12:03.343Z,2.70
2023-01-30T22:14:33.256Z,2.70
2023-01-30T22:17:01.441Z,2.70
2023-01-30T22:19:35.243Z,2.70
2023-01-30T22:22:05.370Z,2.70
2023-01-30T22:24:33.450Z,2.70
2023-01-30T22:27:01.590Z,2.70
2023-01-30T22:29:30.083Z,2.70
2023-01-30T22:31:58.254Z,2.70
2023-01-30T22:34:26.683Z,2.70
2023-01-30T22:36:54.825Z,2.60
2023-01-30T22:39:24.312Z,2.70
2023-01-30T22:41:52.556Z,2.60
2023-01-30T22:44:20.841Z,2.60
2023-01-30T22:46:53.014Z,2.60
2023-01-30T22:49:21.347Z,2.60
2023-01-30T22:51:49.653Z,2.60
2023-01-30T22:54:18.140Z,2.50
2023-01-30T22:56:49.786Z,2.60
2023-01-30T22:59:18.068Z,2.50
2023-01-30T23:01:48.148Z,2.50
2023-01-30T23:04:18.562Z,2.50
2023-01-30T23:06:47.526Z,2.60
2023-01-30T23:09:18.222Z,2.50
2023-01-30T23:12:10.003Z,2.60
2023-01-30T23:14:38.248Z,2.50
2023-01-30T23:17:27.613Z,2.50
2023-01-30T23:19:55.280Z,2.50
2023-01-30T23:22:24.427Z,2.50
2023-01-30T23:24:52.820Z,2.50
2023-01-30T23:27:23.507Z,2.50
2023-01-30T23:29:51.894Z,2.60
2023-01-30T23:32:20.113Z,2.50
2023-01-30T23:34:48.707Z,2.50
2023-01-30T23:37:17.494Z,2.50
2023-01-30T23:39:46.617Z,2.50
2023-01-30T23:42:14.689Z,2.60
2023-01-30T23:44:44.077Z,2.50
2023-01-30T23:47:12.116Z,2.50
2023-01-30T23:49:40.182Z,2.50
2023-01-30T23:52:10.328Z,2.50
2023-01-30T23:54:38.714Z,2.50
2023-01-30T23:57:06.779Z,2.40
2023-01-30T23:59:35.045Z,2.40
